sensor_id;sensor_type;location;lat;lon;timestamp;temperature;humidity
53978;DHT22;39886;47.984;-1.586;2023-03-23T00:01:13;18.80;70.30
53978;DHT22;39886;47.984;-1.586;2023-03-23T00:03:41;18.90;70.40
53978;DHT22;39886;47.984;-1.586;2023-03-23T00:06:08;18.80;70.30
53978;DHT22;39886;47.984;-1.586;2023-03-23T00:08:36;18.80;70.30
53978;DHT22;39886;47.984;-1.586;2023-03-23T00:11:11;18.80;70.30
53978;DHT22;39886;47.984;-1.586;2023-03-23T00:13:41;18.80;70.30
53978;DHT22;39886;47.984;-1.586;2023-03-23T00:16:07;18.80;70.30
53978;DHT22;39886;47.984;-1.586;2023-03-23T00:18:47;18.80;70.20
53978;DHT22;39886;47.984;-1.586;2023-03-23T00:21:13;18.80;70.20
53978;DHT22;39886;47.984;-1.586;2023-03-23T00:23:39;18.80;70.20
53978;DHT22;39886;47.984;-1.586;2023-03-23T00:26:06;18.80;70.20
53978;DHT22;39886;47.984;-1.586;2023-03-23T00:28:32;18.80;70.20
53978;DHT22;39886;47.984;-1.586;2023-03-23T00:31:05;18.80;70.20
53978;DHT22;39886;47.984;-1.586;2023-03-23T00:33:33;18.80;70.20
53978;DHT22;39886;47.984;-1.586;2023-03-23T00:36:04;18.80;70.20
53978;DHT22;39886;47.984;-1.586;2023-03-23T00:38:31;18.80;70.20
53978;DHT22;39886;47.984;-1.586;2023-03-23T00:40:57;18.80;70.20
53978;DHT22;39886;47.984;-1.586;2023-03-23T00:43:24;18.80;70.20
53978;DHT22;39886;47.984;-1.586;2023-03-23T00:45:57;18.80;70.20
53978;DHT22;39886;47.984;-1.586;2023-03-23T00:48:28;18.80;70.20
53978;DHT22;39886;47.984;-1.586;2023-03-23T00:50:55;18.80;70.20
53978;DHT22;39886;47.984;-1.586;2023-03-23T00:53:22;18.80;70.20
53978;DHT22;39886;47.984;-1.586;2023-03-23T00:55:48;18.80;70.20
53978;DHT22;39886;47.984;-1.586;2023-03-23T00:58:15;18.80;70.20
53978;DHT22;39886;47.984;-1.586;2023-03-23T01:00:41;18.80;70.10
53978;DHT22;39886;47.984;-1.586;2023-03-23T01:03:09;18.80;70.10
53978;DHT22;39886;47.984;-1.586;2023-03-23T01:05:39;18.80;70.20
53978;DHT22;39886;47.984;-1.586;2023-03-23T01:08:06;18.70;70.10
53978;DHT22;39886;47.984;-1.586;2023-03-23T01:10:32;18.80;70.10
53978;DHT22;39886;47.984;-1.586;2023-03-23T01:12:59;18.80;70.10
53978;DHT22;39886;47.984;-1.586;2023-03-23T01:15:27;18.80;70.20
53978;DHT22;39886;47.984;-1.586;2023-03-23T01:17:53;18.70;70.10
53978;DHT22;39886;47.984;-1.586;2023-03-23T01:20:19;18.70;70.00
53978;DHT22;39886;47.984;-1.586;2023-03-23T01:22:45;18.70;70.00
53978;DHT22;39886;47.984;-1.586;2023-03-23T01:25:12;18.70;70.00
53978;DHT22;39886;47.984;-1.586;2023-03-23T01:27:38;18.70;70.00
53978;DHT22;39886;47.984;-1.586;2023-03-23T01:30:06;18.70;70.00
53978;DHT22;39886;47.984;-1.586;2023-03-23T01:32:32;18.70;70.00
53978;DHT22;39886;47.984;-1.586;2023-03-23T01:34:58;18.70;69.90
53978;DHT22;39886;47.984;-1.586;2023-03-23T01:37:24;18.70;70.00
53978;DHT22;39886;47.984;-1.586;2023-03-23T01:39:55;18.70;69.90
53978;DHT22;39886;47.984;-1.586;2023-03-23T01:42:25;18.70;70.00
53978;DHT22;39886;47.984;-1.586;2023-03-23T01:47:20;18.70;69.90
53978;DHT22;39886;47.984;-1.586;2023-03-23T01:49:49;18.70;69.90
53978;DHT22;39886;47.984;-1.586;2023-03-23T01:52:26;18.70;69.90
53978;DHT22;39886;47.984;-1.586;2023-03-23T01:54:55;18.70;69.90
53978;DHT22;39886;47.984;-1.586;2023-03-23T01:57:24;18.70;69.90
53978;DHT22;39886;47.984;-1.586;2023-03-23T01:59:53;18.70;69.90
53978;DHT22;39886;47.984;-1.586;2023-03-23T02:02:22;18.70;69.90
53978;DHT22;39886;47.984;-1.586;2023-03-23T02:04:49;18.70;69.90
53978;DHT22;39886;47.984;-1.586;2023-03-23T02:07:18;18.70;69.80
53978;DHT22;39886;47.984;-1.586;2023-03-23T02:09:45;18.70;69.80
53978;DHT22;39886;47.984;-1.586;2023-03-23T02:12:11;18.70;69.80
53978;DHT22;39886;47.984;-1.586;2023-03-23T02:14:37;18.70;69.80
53978;DHT22;39886;47.984;-1.586;2023-03-23T02:17:10;18.70;69.80
53978;DHT22;39886;47.984;-1.586;2023-03-23T02:25:49;18.70;69.70
53978;DHT22;39886;47.984;-1.586;2023-03-23T02:31:35;18.70;69.70
53978;DHT22;39886;47.984;-1.586;2023-03-23T02:34:13;18.70;69.80
53978;DHT22;39886;47.984;-1.586;2023-03-23T02:36:59;18.60;69.70
53978;DHT22;39886;47.984;-1.586;2023-03-23T02:42:01;18.60;69.70
53978;DHT22;39886;47.984;-1.586;2023-03-23T02:44:29;18.70;69.70
53978;DHT22;39886;47.984;-1.586;2023-03-23T02:46:57;18.60;70.30
53978;DHT22;39886;47.984;-1.586;2023-03-23T02:49:26;18.70;70.30
53978;DHT22;39886;47.984;-1.586;2023-03-23T02:51:53;18.70;69.70
53978;DHT22;39886;47.984;-1.586;2023-03-23T02:54:23;18.70;69.60
53978;DHT22;39886;47.984;-1.586;2023-03-23T02:56:52;18.70;69.60
53978;DHT22;39886;47.984;-1.586;2023-03-23T02:59:18;18.70;69.60
53978;DHT22;39886;47.984;-1.586;2023-03-23T03:01:57;18.60;69.60
53978;DHT22;39886;47.984;-1.586;2023-03-23T03:04:26;18.70;69.60
53978;DHT22;39886;47.984;-1.586;2023-03-23T03:07:04;18.70;69.60
53978;DHT22;39886;47.984;-1.586;2023-03-23T03:09:42;18.60;69.50
53978;DHT22;39886;47.984;-1.586;2023-03-23T03:17:36;18.60;69.50
53978;DHT22;39886;47.984;-1.586;2023-03-23T03:20:06;18.60;69.50
53978;DHT22;39886;47.984;-1.586;2023-03-23T03:22:39;18.60;69.50
53978;DHT22;39886;47.984;-1.586;2023-03-23T03:25:08;18.60;69.50
53978;DHT22;39886;47.984;-1.586;2023-03-23T03:27:35;18.60;69.50
53978;DHT22;39886;47.984;-1.586;2023-03-23T03:30:03;18.60;69.50
53978;DHT22;39886;47.984;-1.586;2023-03-23T03:32:36;18.60;69.50
53978;DHT22;39886;47.984;-1.586;2023-03-23T03:35:05;18.60;69.50
53978;DHT22;39886;47.984;-1.586;2023-03-23T03:37:35;18.60;69.50
53978;DHT22;39886;47.984;-1.586;2023-03-23T03:40:08;18.60;69.50
53978;DHT22;39886;47.984;-1.586;2023-03-23T03:42:40;18.60;69.50
53978;DHT22;39886;47.984;-1.586;2023-03-23T03:45:10;18.60;69.50
53978;DHT22;39886;47.984;-1.586;2023-03-23T03:47:37;18.60;69.40
53978;DHT22;39886;47.984;-1.586;2023-03-23T03:50:03;18.60;69.50
53978;DHT22;39886;47.984;-1.586;2023-03-23T03:52:29;18.60;69.50
53978;DHT22;39886;47.984;-1.586;2023-03-23T03:54:55;18.60;69.50
53978;DHT22;39886;47.984;-1.586;2023-03-23T03:57:22;18.60;69.40
53978;DHT22;39886;47.984;-1.586;2023-03-23T03:59:48;18.60;69.40
53978;DHT22;39886;47.984;-1.586;2023-03-23T04:02:14;18.60;69.50
53978;DHT22;39886;47.984;-1.586;2023-03-23T04:04:42;18.60;69.50
53978;DHT22;39886;47.984;-1.586;2023-03-23T04:07:09;18.60;69.50
53978;DHT22;39886;47.984;-1.586;2023-03-23T04:09:39;18.60;69.50
53978;DHT22;39886;47.984;-1.586;2023-03-23T04:12:05;18.60;69.50
53978;DHT22;39886;47.984;-1.586;2023-03-23T04:14:31;18.60;69.50
53978;DHT22;39886;47.984;-1.586;2023-03-23T04:16:57;18.60;69.50
53978;DHT22;39886;47.984;-1.586;2023-03-23T04:19:24;18.60;69.50
53978;DHT22;39886;47.984;-1.586;2023-03-23T04:21:50;18.60;69.50
53978;DHT22;39886;47.984;-1.586;2023-03-23T04:24:17;18.60;69.50
53978;DHT22;39886;47.984;-1.586;2023-03-23T04:26:46;18.60;69.50
53978;DHT22;39886;47.984;-1.586;2023-03-23T04:29:12;18.60;69.50
53978;DHT22;39886;47.984;-1.586;2023-03-23T04:31:38;18.60;69.50
53978;DHT22;39886;47.984;-1.586;2023-03-23T04:34:06;18.60;69.50
53978;DHT22;39886;47.984;-1.586;2023-03-23T04:36:31;18.60;69.50
53978;DHT22;39886;47.984;-1.586;2023-03-23T04:38:59;18.60;69.50
53978;DHT22;39886;47.984;-1.586;2023-03-23T04:41:26;18.60;69.50
53978;DHT22;39886;47.984;-1.586;2023-03-23T04:43:52;18.50;69.40
53978;DHT22;39886;47.984;-1.586;2023-03-23T04:46:22;18.60;69.50
53978;DHT22;39886;47.984;-1.586;2023-03-23T04:48:48;18.60;69.50
53978;DHT22;39886;47.984;-1.586;2023-03-23T04:51:14;18.50;69.40
53978;DHT22;39886;47.984;-1.586;2023-03-23T04:53:40;18.50;69.40
53978;DHT22;39886;47.984;-1.586;2023-03-23T04:56:06;18.50;69.40
53978;DHT22;39886;47.984;-1.586;2023-03-23T04:58:32;18.50;69.40
53978;DHT22;39886;47.984;-1.586;2023-03-23T05:01:00;18.60;69.50
53978;DHT22;39886;47.984;-1.586;2023-03-23T05:03:26;18.50;69.40
53978;DHT22;39886;47.984;-1.586;2023-03-23T05:05:53;18.50;69.40
53978;DHT22;39886;47.984;-1.586;2023-03-23T05:08:20;18.50;69.40
53978;DHT22;39886;47.984;-1.586;2023-03-23T05:10:54;18.50;69.40
53978;DHT22;39886;47.984;-1.586;2023-03-23T05:13:20;18.50;69.40
53978;DHT22;39886;47.984;-1.586;2023-03-23T05:15:47;18.50;69.40
53978;DHT22;39886;47.984;-1.586;2023-03-23T05:18:13;18.50;69.40
53978;DHT22;39886;47.984;-1.586;2023-03-23T05:20:40;18.50;69.40
53978;DHT22;39886;47.984;-1.586;2023-03-23T05:23:07;18.50;69.40
53978;DHT22;39886;47.984;-1.586;2023-03-23T05:25:34;18.50;69.40
53978;DHT22;39886;47.984;-1.586;2023-03-23T05:28:07;18.50;69.40
53978;DHT22;39886;47.984;-1.586;2023-03-23T05:30:33;18.50;69.40
53978;DHT22;39886;47.984;-1.586;2023-03-23T05:32:59;18.50;69.50
53978;DHT22;39886;47.984;-1.586;2023-03-23T05:35:25;18.50;69.50
53978;DHT22;39886;47.984;-1.586;2023-03-23T05:37:51;18.50;69.50
53978;DHT22;39886;47.984;-1.586;2023-03-23T05:40:19;18.50;69.40
53978;DHT22;39886;47.984;-1.586;2023-03-23T05:42:45;18.50;69.40
53978;DHT22;39886;47.984;-1.586;2023-03-23T05:45:13;18.50;69.40
53978;DHT22;39886;47.984;-1.586;2023-03-23T05:47:40;18.50;69.40
53978;DHT22;39886;47.984;-1.586;2023-03-23T05:50:07;18.50;69.40
53978;DHT22;39886;47.984;-1.586;2023-03-23T05:52:35;18.50;69.40
53978;DHT22;39886;47.984;-1.586;2023-03-23T05:55:02;18.50;69.40
53978;DHT22;39886;47.984;-1.586;2023-03-23T05:57:29;18.50;69.40
53978;DHT22;39886;47.984;-1.586;2023-03-23T05:59:55;18.50;69.40
53978;DHT22;39886;47.984;-1.586;2023-03-23T06:02:23;18.50;69.40
53978;DHT22;39886;47.984;-1.586;2023-03-23T06:04:50;18.50;69.40
53978;DHT22;39886;47.984;-1.586;2023-03-23T06:07:16;18.50;69.40
53978;DHT22;39886;47.984;-1.586;2023-03-23T06:09:43;18.50;69.40
53978;DHT22;39886;47.984;-1.586;2023-03-23T06:12:09;18.50;69.40
53978;DHT22;39886;47.984;-1.586;2023-03-23T06:14:36;18.50;69.40
53978;DHT22;39886;47.984;-1.586;2023-03-23T06:17:02;18.50;69.40
53978;DHT22;39886;47.984;-1.586;2023-03-23T06:19:28;18.50;69.30
53978;DHT22;39886;47.984;-1.586;2023-03-23T06:21:54;18.60;69.00
53978;DHT22;39886;47.984;-1.586;2023-03-23T06:24:21;18.70;68.70
53978;DHT22;39886;47.984;-1.586;2023-03-23T06:26:47;18.80;68.40
53978;DHT22;39886;47.984;-1.586;2023-03-23T06:29:13;18.90;68.10
53978;DHT22;39886;47.984;-1.586;2023-03-23T06:32:01;19.00;68.00
53978;DHT22;39886;47.984;-1.586;2023-03-23T06:34:28;19.10;67.70
53978;DHT22;39886;47.984;-1.586;2023-03-23T06:36:55;19.20;67.50
53978;DHT22;39886;47.984;-1.586;2023-03-23T06:39:21;19.30;67.30
53978;DHT22;39886;47.984;-1.586;2023-03-23T06:41:47;19.30;67.10
53978;DHT22;39886;47.984;-1.586;2023-03-23T06:44:13;19.40;66.90
53978;DHT22;39886;47.984;-1.586;2023-03-23T06:46:40;19.50;66.70
53978;DHT22;39886;47.984;-1.586;2023-03-23T06:49:07;19.50;66.50
53978;DHT22;39886;47.984;-1.586;2023-03-23T06:51:33;19.60;66.30
53978;DHT22;39886;47.984;-1.586;2023-03-23T06:53:59;19.60;66.10
53978;DHT22;39886;47.984;-1.586;2023-03-23T06:56:25;19.70;66.00
53978;DHT22;39886;47.984;-1.586;2023-03-23T06:58:51;19.80;65.90
53978;DHT22;39886;47.984;-1.586;2023-03-23T07:01:18;19.80;65.90
53978;DHT22;39886;47.984;-1.586;2023-03-23T07:03:43;19.90;66.30
53978;DHT22;39886;47.984;-1.586;2023-03-23T07:06:10;19.90;65.50
53978;DHT22;39886;47.984;-1.586;2023-03-23T07:08:36;20.00;65.20
53978;DHT22;39886;47.984;-1.586;2023-03-23T07:11:02;20.00;65.10
53978;DHT22;39886;47.984;-1.586;2023-03-23T07:13:28;20.10;65.00
53978;DHT22;39886;47.984;-1.586;2023-03-23T07:15:54;20.10;64.90
53978;DHT22;39886;47.984;-1.586;2023-03-23T07:18:20;20.10;64.60
53978;DHT22;39886;47.984;-1.586;2023-03-23T07:20:50;20.20;65.00
53978;DHT22;39886;47.984;-1.586;2023-03-23T07:23:17;20.20;64.90
53978;DHT22;39886;47.984;-1.586;2023-03-23T07:25:44;20.30;64.80
53978;DHT22;39886;47.984;-1.586;2023-03-23T07:28:11;20.30;65.20
53978;DHT22;39886;47.984;-1.586;2023-03-23T07:30:37;20.40;64.90
53978;DHT22;39886;47.984;-1.586;2023-03-23T07:33:07;20.40;64.70
53978;DHT22;39886;47.984;-1.586;2023-03-23T07:35:33;20.40;64.50
53978;DHT22;39886;47.984;-1.586;2023-03-23T07:38:00;20.50;64.30
53978;DHT22;39886;47.984;-1.586;2023-03-23T07:40:26;20.60;64.20
53978;DHT22;39886;47.984;-1.586;2023-03-23T07:42:54;20.60;64.40
53978;DHT22;39886;47.984;-1.586;2023-03-23T07:45:20;20.70;64.40
53978;DHT22;39886;47.984;-1.586;2023-03-23T07:47:46;20.70;64.20
53978;DHT22;39886;47.984;-1.586;2023-03-23T07:50:12;20.70;64.20
53978;DHT22;39886;47.984;-1.586;2023-03-23T07:52:39;20.80;64.00
53978;DHT22;39886;47.984;-1.586;2023-03-23T07:55:09;20.90;63.70
53978;DHT22;39886;47.984;-1.586;2023-03-23T07:57:43;20.90;64.00
53978;DHT22;39886;47.984;-1.586;2023-03-23T08:00:09;21.00;65.30
53978;DHT22;39886;47.984;-1.586;2023-03-23T08:02:40;21.00;64.90
53978;DHT22;39886;47.984;-1.586;2023-03-23T08:05:07;21.10;64.80
53978;DHT22;39886;47.984;-1.586;2023-03-23T08:07:34;21.20;64.50
53978;DHT22;39886;47.984;-1.586;2023-03-23T08:10:00;21.20;64.90
53978;DHT22;39886;47.984;-1.586;2023-03-23T08:12:26;21.20;65.20
53978;DHT22;39886;47.984;-1.586;2023-03-23T08:14:52;21.30;65.20
53978;DHT22;39886;47.984;-1.586;2023-03-23T08:17:19;21.30;65.00
53978;DHT22;39886;47.984;-1.586;2023-03-23T08:19:45;21.30;64.40
53978;DHT22;39886;47.984;-1.586;2023-03-23T08:22:11;21.20;65.40
53978;DHT22;39886;47.984;-1.586;2023-03-23T08:24:38;21.20;65.10
53978;DHT22;39886;47.984;-1.586;2023-03-23T08:27:04;21.10;65.50
53978;DHT22;39886;47.984;-1.586;2023-03-23T08:29:30;21.10;65.30
53978;DHT22;39886;47.984;-1.586;2023-03-23T08:31:57;21.10;66.10
53978;DHT22;39886;47.984;-1.586;2023-03-23T08:34:23;21.10;66.20
53978;DHT22;39886;47.984;-1.586;2023-03-23T08:36:49;21.10;66.00
53978;DHT22;39886;47.984;-1.586;2023-03-23T08:39:17;21.10;66.90
53978;DHT22;39886;47.984;-1.586;2023-03-23T08:41:44;21.00;66.40
53978;DHT22;39886;47.984;-1.586;2023-03-23T08:44:11;21.00;66.50
53978;DHT22;39886;47.984;-1.586;2023-03-23T08:46:37;21.00;66.40
53978;DHT22;39886;47.984;-1.586;2023-03-23T08:49:04;21.00;66.50
53978;DHT22;39886;47.984;-1.586;2023-03-23T08:51:31;21.00;66.90
53978;DHT22;39886;47.984;-1.586;2023-03-23T08:53:57;21.00;67.00
53978;DHT22;39886;47.984;-1.586;2023-03-23T08:56:24;21.00;66.70
53978;DHT22;39886;47.984;-1.586;2023-03-23T08:58:50;21.00;66.90
53978;DHT22;39886;47.984;-1.586;2023-03-23T09:01:16;21.00;66.60
53978;DHT22;39886;47.984;-1.586;2023-03-23T09:03:42;21.00;66.90
53978;DHT22;39886;47.984;-1.586;2023-03-23T09:06:08;21.00;67.50
53978;DHT22;39886;47.984;-1.586;2023-03-23T09:08:36;21.10;68.10
53978;DHT22;39886;47.984;-1.586;2023-03-23T09:11:04;21.10;66.70
53978;DHT22;39886;47.984;-1.586;2023-03-23T09:13:30;21.10;67.50
53978;DHT22;39886;47.984;-1.586;2023-03-23T09:15:56;21.10;67.50
53978;DHT22;39886;47.984;-1.586;2023-03-23T09:18:23;21.10;66.80
53978;DHT22;39886;47.984;-1.586;2023-03-23T09:20:52;21.10;67.10
53978;DHT22;39886;47.984;-1.586;2023-03-23T09:23:19;21.10;67.00
53978;DHT22;39886;47.984;-1.586;2023-03-23T09:25:46;21.10;67.10
53978;DHT22;39886;47.984;-1.586;2023-03-23T09:28:11;21.10;67.50
53978;DHT22;39886;47.984;-1.586;2023-03-23T09:30:38;21.20;66.90
53978;DHT22;39886;47.984;-1.586;2023-03-23T09:33:06;21.10;67.00
53978;DHT22;39886;47.984;-1.586;2023-03-23T09:35:34;21.10;66.90
53978;DHT22;39886;47.984;-1.586;2023-03-23T09:38:02;21.10;67.00
53978;DHT22;39886;47.984;-1.586;2023-03-23T09:40:51;21.20;67.20
53978;DHT22;39886;47.984;-1.586;2023-03-23T09:49:02;21.20;67.60
53978;DHT22;39886;47.984;-1.586;2023-03-23T09:54:21;21.20;66.70
53978;DHT22;39886;47.984;-1.586;2023-03-23T09:56:49;21.20;67.10
53978;DHT22;39886;47.984;-1.586;2023-03-23T10:01:50;21.20;67.30
53978;DHT22;39886;47.984;-1.586;2023-03-23T10:04:38;21.20;67.40
53978;DHT22;39886;47.984;-1.586;2023-03-23T10:07:16;21.20;67.50
53978;DHT22;39886;47.984;-1.586;2023-03-23T10:09:45;21.20;67.20
53978;DHT22;39886;47.984;-1.586;2023-03-23T10:12:27;21.30;67.40
53978;DHT22;39886;47.984;-1.586;2023-03-23T10:15:14;21.30;67.40
53978;DHT22;39886;47.984;-1.586;2023-03-23T10:17:50;21.30;67.60
53978;DHT22;39886;47.984;-1.586;2023-03-23T10:20:53;21.30;67.40
53978;DHT22;39886;47.984;-1.586;2023-03-23T10:29:21;21.40;67.10
53978;DHT22;39886;47.984;-1.586;2023-03-23T10:34:39;21.40;67.40
53978;DHT22;39886;47.984;-1.586;2023-03-23T10:37:18;21.40;67.60
53978;DHT22;39886;47.984;-1.586;2023-03-23T10:39:54;21.40;67.80
53978;DHT22;39886;47.984;-1.586;2023-03-23T10:42:34;21.40;67.40
53978;DHT22;39886;47.984;-1.586;2023-03-23T10:45:18;21.40;68.10
53978;DHT22;39886;47.984;-1.586;2023-03-23T10:47:56;21.40;67.70
53978;DHT22;39886;47.984;-1.586;2023-03-23T10:50:30;21.40;67.70
53978;DHT22;39886;47.984;-1.586;2023-03-23T10:52:58;21.40;67.50
53978;DHT22;39886;47.984;-1.586;2023-03-23T10:55:38;21.40;67.50
53978;DHT22;39886;47.984;-1.586;2023-03-23T10:58:11;21.40;67.50
53978;DHT22;39886;47.984;-1.586;2023-03-23T11:00:43;21.50;67.50
53978;DHT22;39886;47.984;-1.586;2023-03-23T11:05:47;21.50;67.40
53978;DHT22;39886;47.984;-1.586;2023-03-23T11:08:18;21.50;67.30
53978;DHT22;39886;47.984;-1.586;2023-03-23T11:10:58;21.50;67.40
53978;DHT22;39886;47.984;-1.586;2023-03-23T11:13:31;21.40;67.20
53978;DHT22;39886;47.984;-1.586;2023-03-23T11:15:58;21.40;67.20
53978;DHT22;39886;47.984;-1.586;2023-03-23T11:18:33;21.40;67.40
53978;DHT22;39886;47.984;-1.586;2023-03-23T11:21:00;21.40;67.40
53978;DHT22;39886;47.984;-1.586;2023-03-23T11:23:36;21.40;67.60
53978;DHT22;39886;47.984;-1.586;2023-03-23T11:28:46;21.40;67.60
53978;DHT22;39886;47.984;-1.586;2023-03-23T11:31:16;21.30;67.70
53978;DHT22;39886;47.984;-1.586;2023-03-23T11:33:55;21.30;67.70
53978;DHT22;39886;47.984;-1.586;2023-03-23T11:36:29;21.30;67.60
53978;DHT22;39886;47.984;-1.586;2023-03-23T11:38:56;21.30;68.00
53978;DHT22;39886;47.984;-1.586;2023-03-23T11:41:23;21.20;68.20
53978;DHT22;39886;47.984;-1.586;2023-03-23T11:43:52;21.20;68.30
53978;DHT22;39886;47.984;-1.586;2023-03-23T11:46:33;21.20;68.50
53978;DHT22;39886;47.984;-1.586;2023-03-23T11:55:10;21.10;68.20
53978;DHT22;39886;47.984;-1.586;2023-03-23T11:57:37;21.10;68.30
53978;DHT22;39886;47.984;-1.586;2023-03-23T12:00:18;21.10;68.30
53978;DHT22;39886;47.984;-1.586;2023-03-23T12:03:05;21.10;68.10
53978;DHT22;39886;47.984;-1.586;2023-03-23T12:09:01;21.10;68.20
53978;DHT22;39886;47.984;-1.586;2023-03-23T12:17:06;21.00;68.50
53978;DHT22;39886;47.984;-1.586;2023-03-23T12:30:42;20.90;68.40
53978;DHT22;39886;47.984;-1.586;2023-03-23T12:36:24;21.00;68.70
53978;DHT22;39886;47.984;-1.586;2023-03-23T12:44:14;21.00;68.60
53978;DHT22;39886;47.984;-1.586;2023-03-23T12:47:32;21.00;68.70
53978;DHT22;39886;47.984;-1.586;2023-03-23T12:50:13;20.90;68.90
53978;DHT22;39886;47.984;-1.586;2023-03-23T12:53:06;21.00;69.00
53978;DHT22;39886;47.984;-1.586;2023-03-23T12:55:41;21.00;69.20
53978;DHT22;39886;47.984;-1.586;2023-03-23T12:58:31;21.10;68.90
53978;DHT22;39886;47.984;-1.586;2023-03-23T13:01:10;21.10;68.50
53978;DHT22;39886;47.984;-1.586;2023-03-23T13:06:23;21.20;69.00
53978;DHT22;39886;47.984;-1.586;2023-03-23T13:11:54;21.30;68.60
53978;DHT22;39886;47.984;-1.586;2023-03-23T13:17:38;21.40;68.50
53978;DHT22;39886;47.984;-1.586;2023-03-23T13:20:48;21.40;68.50
53978;DHT22;39886;47.984;-1.586;2023-03-23T13:23:35;21.40;68.70
53978;DHT22;39886;47.984;-1.586;2023-03-23T13:26:11;21.50;68.60
53978;DHT22;39886;47.984;-1.586;2023-03-23T13:31:30;21.50;68.20
53978;DHT22;39886;47.984;-1.586;2023-03-23T13:34:10;21.50;68.40
53978;DHT22;39886;47.984;-1.586;2023-03-23T13:36:40;21.60;68.00
53978;DHT22;39886;47.984;-1.586;2023-03-23T13:39:24;21.60;67.90
53978;DHT22;39886;47.984;-1.586;2023-03-23T13:50:50;21.70;68.20
53978;DHT22;39886;47.984;-1.586;2023-03-23T13:53:00;21.80;67.90
53978;DHT22;39886;47.984;-1.586;2023-03-23T13:55:39;21.80;67.70
53978;DHT22;39886;47.984;-1.586;2023-03-23T14:00:36;21.80;67.60
53978;DHT22;39886;47.984;-1.586;2023-03-23T14:03:26;21.80;67.50
53978;DHT22;39886;47.984;-1.586;2023-03-23T14:11:08;21.90;67.70
53978;DHT22;39886;47.984;-1.586;2023-03-23T14:13:58;21.90;67.70
53978;DHT22;39886;47.984;-1.586;2023-03-23T14:16:45;22.00;67.80
53978;DHT22;39886;47.984;-1.586;2023-03-23T14:19:26;22.00;67.60
53978;DHT22;39886;47.984;-1.586;2023-03-23T14:21:59;22.00;67.60
53978;DHT22;39886;47.984;-1.586;2023-03-23T14:24:32;21.90;67.50
53978;DHT22;39886;47.984;-1.586;2023-03-23T14:29:38;22.00;67.70
53978;DHT22;39886;47.984;-1.586;2023-03-23T14:32:14;22.00;67.50
53978;DHT22;39886;47.984;-1.586;2023-03-23T14:34:40;22.00;67.70
53978;DHT22;39886;47.984;-1.586;2023-03-23T14:37:14;22.00;67.70
53978;DHT22;39886;47.984;-1.586;2023-03-23T14:39:46;22.00;67.80
53978;DHT22;39886;47.984;-1.586;2023-03-23T14:42:16;22.00;67.90
53978;DHT22;39886;47.984;-1.586;2023-03-23T14:44:48;22.00;67.60
53978;DHT22;39886;47.984;-1.586;2023-03-23T14:49:53;22.00;67.80
53978;DHT22;39886;47.984;-1.586;2023-03-23T14:52:22;22.00;68.00
53978;DHT22;39886;47.984;-1.586;2023-03-23T14:54:49;22.00;68.50
53978;DHT22;39886;47.984;-1.586;2023-03-23T14:57:18;22.00;67.70
53978;DHT22;39886;47.984;-1.586;2023-03-23T14:59:46;22.00;67.90
53978;DHT22;39886;47.984;-1.586;2023-03-23T15:02:20;22.00;68.10
53978;DHT22;39886;47.984;-1.586;2023-03-23T15:04:51;21.90;68.10
53978;DHT22;39886;47.984;-1.586;2023-03-23T15:07:20;22.00;68.10
53978;DHT22;39886;47.984;-1.586;2023-03-23T15:09:47;22.00;68.30
53978;DHT22;39886;47.984;-1.586;2023-03-23T15:12:21;22.00;68.30
53978;DHT22;39886;47.984;-1.586;2023-03-23T15:14:52;22.00;68.30
53978;DHT22;39886;47.984;-1.586;2023-03-23T15:17:28;22.00;68.20
53978;DHT22;39886;47.984;-1.586;2023-03-23T15:19:55;22.00;68.50
53978;DHT22;39886;47.984;-1.586;2023-03-23T15:24:47;21.90;68.10
53978;DHT22;39886;47.984;-1.586;2023-03-23T15:29:52;21.90;68.20
53978;DHT22;39886;47.984;-1.586;2023-03-23T15:34:51;21.90;68.50
53978;DHT22;39886;47.984;-1.586;2023-03-23T15:37:31;21.90;68.40
53978;DHT22;39886;47.984;-1.586;2023-03-23T15:39:58;21.90;68.90
53978;DHT22;39886;47.984;-1.586;2023-03-23T15:42:34;21.90;68.60
53978;DHT22;39886;47.984;-1.586;2023-03-23T15:45:24;21.90;68.70
53978;DHT22;39886;47.984;-1.586;2023-03-23T15:47:50;21.80;68.80
53978;DHT22;39886;47.984;-1.586;2023-03-23T15:50:19;21.80;69.30
53978;DHT22;39886;47.984;-1.586;2023-03-23T15:52:46;21.80;69.50
53978;DHT22;39886;47.984;-1.586;2023-03-23T15:55:26;21.80;69.20
53978;DHT22;39886;47.984;-1.586;2023-03-23T15:57:54;21.80;69.20
53978;DHT22;39886;47.984;-1.586;2023-03-23T16:00:22;21.80;69.40
53978;DHT22;39886;47.984;-1.586;2023-03-23T16:02:58;21.80;69.10
53978;DHT22;39886;47.984;-1.586;2023-03-23T16:05:26;21.80;69.30
53978;DHT22;39886;47.984;-1.586;2023-03-23T16:07:52;21.80;69.00
53978;DHT22;39886;47.984;-1.586;2023-03-23T16:10:20;21.80;69.60
53978;DHT22;39886;47.984;-1.586;2023-03-23T16:12:46;21.80;69.20
53978;DHT22;39886;47.984;-1.586;2023-03-23T16:15:13;21.80;69.40
53978;DHT22;39886;47.984;-1.586;2023-03-23T16:17:39;21.80;68.90
53978;DHT22;39886;47.984;-1.586;2023-03-23T16:20:20;21.80;69.00
53978;DHT22;39886;47.984;-1.586;2023-03-23T16:22:47;21.80;69.60
53978;DHT22;39886;47.984;-1.586;2023-03-23T16:25:13;21.80;69.30
53978;DHT22;39886;47.984;-1.586;2023-03-23T16:27:40;21.80;69.40
53978;DHT22;39886;47.984;-1.586;2023-03-23T16:30:21;21.80;69.00
53978;DHT22;39886;47.984;-1.586;2023-03-23T16:32:47;21.80;68.60
53978;DHT22;39886;47.984;-1.586;2023-03-23T16:35:14;21.80;68.90
53978;DHT22;39886;47.984;-1.586;2023-03-23T16:37:47;21.80;69.10
53978;DHT22;39886;47.984;-1.586;2023-03-23T16:40:14;21.80;70.90
53978;DHT22;39886;47.984;-1.586;2023-03-23T16:42:40;21.80;70.10
53978;DHT22;39886;47.984;-1.586;2023-03-23T16:45:07;21.80;69.40
53978;DHT22;39886;47.984;-1.586;2023-03-23T16:47:33;21.80;69.60
53978;DHT22;39886;47.984;-1.586;2023-03-23T16:49:59;21.70;69.80
53978;DHT22;39886;47.984;-1.586;2023-03-23T16:52:25;21.70;69.60
53978;DHT22;39886;47.984;-1.586;2023-03-23T16:54:50;21.70;69.80
53978;DHT22;39886;47.984;-1.586;2023-03-23T16:57:16;21.70;69.70
53978;DHT22;39886;47.984;-1.586;2023-03-23T17:02:10;21.60;69.00
53978;DHT22;39886;47.984;-1.586;2023-03-23T17:04:36;21.60;70.20
53978;DHT22;39886;47.984;-1.586;2023-03-23T17:07:06;21.50;69.90
53978;DHT22;39886;47.984;-1.586;2023-03-23T17:09:32;21.50;69.50
53978;DHT22;39886;47.984;-1.586;2023-03-23T17:11:58;21.50;69.60
53978;DHT22;39886;47.984;-1.586;2023-03-23T17:14:24;21.50;69.80
53978;DHT22;39886;47.984;-1.586;2023-03-23T17:16:50;21.40;70.00
53978;DHT22;39886;47.984;-1.586;2023-03-23T17:19:15;21.40;70.20
53978;DHT22;39886;47.984;-1.586;2023-03-23T17:21:41;21.40;70.10
53978;DHT22;39886;47.984;-1.586;2023-03-23T17:24:08;21.30;70.10
53978;DHT22;39886;47.984;-1.586;2023-03-23T17:26:34;21.30;70.80
53978;DHT22;39886;47.984;-1.586;2023-03-23T17:29:02;21.30;70.10
53978;DHT22;39886;47.984;-1.586;2023-03-23T17:31:28;21.20;70.40
53978;DHT22;39886;47.984;-1.586;2023-03-23T17:33:53;21.20;70.70